createdAt,value
2023-03-13T00:01:40.558Z,99789.56
2023-03-13T00:04:08.074Z,99789.91
2023-03-13T00:06:39.088Z,99791.59
2023-03-13T00:09:08.962Z,99775.53
2023-03-13T00:11:35.718Z,99768.53
2023-03-13T00:14:03.900Z,99772.06
2023-03-13T00:16:31.919Z,99764.63
2023-03-13T00:18:59.101Z,99752.44
2023-03-13T00:21:28.067Z,99754.66
2023-03-13T00:23:55.127Z,99746.47
2023-03-13T00:26:24.167Z,99737.78
2023-03-13T00:28:51.563Z,99738.66
2023-03-13T00:31:24.060Z,99729.44
2023-03-13T00:33:53.163Z,99743.78
2023-03-13T00:36:25.892Z,99740.13
2023-03-13T00:38:53.933Z,99737.28
2023-03-13T00:41:26.395Z,99731.28
2023-03-13T00:43:53.230Z,99732.53
2023-03-13T00:46:22.478Z,99723.78
2023-03-13T00:48:50.248Z,99712.97
2023-03-13T00:51:18.459Z,99713.00
2023-03-13T00:53:46.543Z,99705.19
2023-03-13T00:56:15.674Z,99704.09
2023-03-13T00:58:44.356Z,99693.78
2023-03-13T01:01:31.803Z,99692.59
2023-03-13T01:04:04.955Z,99688.06
2023-03-13T01:06:34.157Z,99689.09
2023-03-13T01:09:00.918Z,99682.38
2023-03-13T01:11:30.283Z,99680.50
2023-03-13T01:14:02.755Z,99679.84
2023-03-13T01:16:36.226Z,99676.47
2023-03-13T01:19:06.951Z,99679.41
2023-03-13T01:21:33.726Z,99667.56
2023-03-13T01:24:00.421Z,99661.94
2023-03-13T01:26:27.532Z,99669.28
2023-03-13T01:28:55.053Z,99661.66
2023-03-13T01:31:25.143Z,99656.81
2023-03-13T01:33:55.254Z,99647.03
2023-03-13T01:36:22.750Z,99639.69
2023-03-13T01:38:54.178Z,99640.69
2023-03-13T01:41:22.795Z,99634.13
2023-03-13T01:43:49.601Z,99622.31
2023-03-13T01:46:19.897Z,99622.53
2023-03-13T01:49:04.613Z,99612.47
2023-03-13T01:51:40.392Z,99605.13
2023-03-13T01:54:13.807Z,99597.19
2023-03-13T01:56:46.886Z,99593.28
2023-03-13T01:59:16.887Z,99589.56
2023-03-13T02:01:46.139Z,99579.25
2023-03-13T02:04:16.238Z,99580.97
2023-03-13T02:06:47.071Z,99572.75
2023-03-13T02:09:24.543Z,99561.28
2023-03-13T02:12:06.806Z,99551.06
2023-03-13T02:14:35.883Z,99559.19
2023-03-13T02:17:03.837Z,99543.72
2023-03-13T02:19:45.107Z,99541.81
2023-03-13T02:22:23.001Z,99536.69
2023-03-13T02:24:58.653Z,99533.69
2023-03-13T02:27:25.756Z,99528.47
2023-03-13T02:29:53.351Z,99519.19
2023-03-13T02:32:20.262Z,99521.34
2023-03-13T02:34:50.671Z,99515.66
2023-03-13T02:37:19.212Z,99512.66
2023-03-13T02:39:50.382Z,99509.66
2023-03-13T02:42:19.470Z,99502.09
2023-03-13T02:44:47.838Z,99504.28
2023-03-13T02:47:22.401Z,99497.97
2023-03-13T02:49:51.045Z,99490.03
2023-03-13T02:52:20.237Z,99485.59
2023-03-13T02:54:49.514Z,99487.56
2023-03-13T02:57:16.518Z,99480.09
2023-03-13T02:59:43.219Z,99468.19
2023-03-13T03:02:09.879Z,99465.22
2023-03-13T03:04:37.600Z,99466.13
2023-03-13T03:07:04.235Z,99447.13
2023-03-13T03:09:30.922Z,99451.41
2023-03-13T03:12:02.401Z,99441.91
2023-03-13T03:14:29.552Z,99439.66
2023-03-13T03:16:58.061Z,99436.53
2023-03-13T03:19:26.130Z,99436.25
2023-03-13T03:21:52.869Z,99427.72
2023-03-13T03:24:19.956Z,99430.63
2023-03-13T03:26:47.061Z,99429.81
2023-03-13T03:29:21.569Z,99420.69
2023-03-13T03:31:50.956Z,99414.91
2023-03-13T03:34:18.013Z,99399.59
2023-03-13T03:36:45.598Z,99404.28
2023-03-13T03:39:12.461Z,99398.88
2023-03-13T03:41:39.969Z,99394.94
2023-03-13T03:44:07.405Z,99382.84
2023-03-13T03:46:46.346Z,99374.19
2023-03-13T03:49:13.219Z,99361.31
2023-03-13T03:51:40.450Z,99361.34
2023-03-13T03:54:07.309Z,99356.47
2023-03-13T03:56:34.607Z,99352.81
2023-03-13T03:59:01.396Z,99346.50
2023-03-13T04:01:41.414Z,99341.66
2023-03-13T04:04:08.856Z,99328.53
2023-03-13T04:06:35.788Z,99335.75
2023-03-13T04:09:04.864Z,99327.09
2023-03-13T04:11:32.559Z,99319.78
2023-03-13T04:13:59.232Z,99321.75
2023-03-13T04:16:26.806Z,99313.38
2023-03-13T04:18:55.093Z,99308.94
2023-03-13T04:21:23.872Z,99300.69
2023-03-13T04:23:55.429Z,99294.84
2023-03-13T04:26:23.767Z,99282.13
2023-03-13T04:28:52.849Z,99280.66
2023-03-13T04:31:29.747Z,99273.19
2023-03-13T04:34:05.907Z,99259.53
2023-03-13T04:36:55.728Z,99254.28
2023-03-13T04:39:48.598Z,99231.59
2023-03-13T04:42:33.640Z,99237.66
2023-03-13T04:45:16.005Z,99225.19
2023-03-13T04:47:56.104Z,99216.00
2023-03-13T04:50:39.034Z,99203.56
2023-03-13T04:53:21.867Z,99198.00
2023-03-13T04:55:50.261Z,99185.75
2023-03-13T04:58:37.177Z,99177.78
2023-03-13T05:01:22.225Z,99175.53
2023-03-13T05:04:08.267Z,99166.66
2023-03-13T05:06:52.010Z,99154.28
2023-03-13T05:09:41.475Z,99141.91
2023-03-13T05:12:26.576Z,99134.03
2023-03-13T05:14:58.996Z,99127.59
2023-03-13T05:17:25.584Z,99114.78
2023-03-13T05:20:21.569Z,99096.09
2023-03-13T05:23:08.468Z,99102.41
2023-03-13T05:25:55.239Z,99082.59
2023-03-13T05:28:42.138Z,99083.28
2023-03-13T05:31:20.162Z,99078.25
2023-03-13T05:34:05.367Z,99059.22
2023-03-13T05:36:40.957Z,99070.22
2023-03-13T05:39:32.323Z,99071.03
2023-03-13T05:42:31.547Z,99053.59
2023-03-13T05:45:21.701Z,99064.63
2023-03-13T05:48:00.287Z,99055.44
2023-03-13T05:50:40.145Z,99057.00
2023-03-13T05:53:34.559Z,99047.63
2023-03-13T05:56:13.941Z,99048.78
2023-03-13T05:58:58.505Z,99034.88
2023-03-13T06:01:57.479Z,99030.47
2023-03-13T06:04:32.630Z,99021.78
2023-03-13T06:06:59.320Z,99024.00
2023-03-13T06:09:25.988Z,99010.03
2023-03-13T06:11:55.279Z,99004.41
2023-03-13T06:14:22.906Z,99004.38
2023-03-13T06:17:08.594Z,99016.50
2023-03-13T06:19:35.310Z,99001.69
2023-03-13T06:22:01.928Z,98982.06
2023-03-13T06:24:29.877Z,98991.88
2023-03-13T06:26:56.487Z,99004.59
2023-03-13T06:29:24.355Z,98989.56
2023-03-13T06:31:51.971Z,98988.97
2023-03-13T06:34:18.921Z,98989.47
2023-03-13T06:36:45.745Z,98982.38
2023-03-13T06:39:13.321Z,98976.00
2023-03-13T06:41:39.968Z,98970.06
2023-03-13T06:44:06.616Z,98958.53
2023-03-13T06:46:33.619Z,98959.72
2023-03-13T06:49:00.828Z,98954.84
2023-03-13T06:51:27.514Z,98944.53
2023-03-13T06:53:54.254Z,98935.53
2023-03-13T06:56:21.782Z,98923.09
2023-03-13T06:58:50.152Z,98927.41
2023-03-13T07:01:18.129Z,98924.34
2023-03-13T07:03:45.027Z,98911.53
2023-03-13T07:06:12.568Z,98909.13
2023-03-13T07:08:39.854Z,98903.56
2023-03-13T07:11:08.802Z,98895.78
2023-03-13T07:13:36.174Z,98898.31
2023-03-13T07:16:08.480Z,98894.69
2023-03-13T07:18:36.216Z,98913.78
2023-03-13T07:21:07.420Z,98899.31
2023-03-13T07:23:35.432Z,98882.81
2023-03-13T07:26:05.211Z,98889.59
2023-03-13T07:28:32.186Z,98882.25
2023-03-13T07:31:24.987Z,98873.16
2023-03-13T07:33:56.447Z,98869.31
2023-03-13T07:36:23.675Z,98859.56
2023-03-13T07:38:51.477Z,98867.25
2023-03-13T07:41:18.979Z,98865.53
2023-03-13T07:43:46.373Z,98867.16
2023-03-13T07:46:15.932Z,98861.00
2023-03-13T07:48:43.375Z,98862.31
2023-03-13T07:51:16.923Z,98862.88
2023-03-13T07:53:45.009Z,98859.22
2023-03-13T07:56:14.170Z,98862.03
2023-03-13T07:58:41.869Z,98855.41
2023-03-13T08:01:30.917Z,98848.19
2023-03-13T08:04:01.105Z,98846.41
2023-03-13T08:06:32.755Z,98843.53
2023-03-13T08:09:00.522Z,98839.50
2023-03-13T08:11:28.610Z,98833.44
2023-03-13T08:13:56.665Z,98831.34
2023-03-13T08:16:24.536Z,98834.56
2023-03-13T08:18:54.955Z,98832.44
2023-03-13T08:21:27.159Z,98826.22
2023-03-13T08:24:06.851Z,98818.59
2023-03-13T08:26:36.064Z,98828.59
2023-03-13T08:29:05.924Z,98819.56
2023-03-13T08:31:38.671Z,98821.94
2023-03-13T08:34:05.440Z,98808.34
2023-03-13T08:39:04.997Z,98811.03
2023-03-13T08:41:37.451Z,98815.97
2023-03-13T08:44:05.301Z,98810.88
2023-03-13T08:46:34.738Z,98807.53
2023-03-13T08:49:01.994Z,98803.81
2023-03-13T08:51:29.688Z,98801.69
2023-03-13T08:53:56.811Z,98804.91
2023-03-13T08:56:26.166Z,98789.13
2023-03-13T08:58:54.817Z,98810.84
2023-03-13T09:01:23.673Z,98802.88
2023-03-13T09:03:50.692Z,98796.00
2023-03-13T09:06:17.725Z,98787.63
2023-03-13T09:08:45.129Z,98791.25
2023-03-13T09:11:14.568Z,98778.25
2023-03-13T09:13:43.696Z,98781.63
2023-03-13T09:16:22.175Z,98789.00
2023-03-13T09:18:50.246Z,98775.22
2023-03-13T09:21:19.661Z,98770.84
2023-03-13T09:23:47.411Z,98773.94
2023-03-13T09:26:14.883Z,98765.91
2023-03-13T09:28:44.602Z,98772.91
2023-03-13T09:31:17.471Z,98775.47
2023-03-13T09:33:45.949Z,98768.13
2023-03-13T09:36:13.022Z,98768.41
2023-03-13T09:38:40.526Z,98772.00
2023-03-13T09:41:24.513Z,98775.19
2023-03-13T09:44:09.925Z,98767.50
2023-03-13T09:46:39.583Z,98765.22
2023-03-13T09:49:17.303Z,98778.69
2023-03-13T09:51:49.061Z,98773.78
2023-03-13T09:54:50.197Z,98774.22
2023-03-13T09:57:34.965Z,98776.09
2023-03-13T10:00:19.925Z,98781.34
2023-03-13T10:02:56.171Z,98777.66
2023-03-13T10:05:29.862Z,98775.59
2023-03-13T10:08:02.251Z,98779.19
2023-03-13T10:10:45.306Z,98784.34
2023-03-13T10:13:32.001Z,98783.25
2023-03-13T10:16:02.957Z,98792.50
2023-03-13T10:18:29.681Z,98786.97
2023-03-13T10:21:06.198Z,98797.34
2023-03-13T10:23:39.519Z,98791.06
2023-03-13T10:26:10.519Z,98806.75
2023-03-13T10:28:37.213Z,98802.75
2023-03-13T10:31:23.758Z,98805.69
2023-03-13T10:33:50.620Z,98799.84
2023-03-13T10:36:19.720Z,98801.16
2023-03-13T10:38:52.426Z,98810.53
2023-03-13T10:41:28.086Z,98811.31
2023-03-13T10:43:59.993Z,98816.91
2023-03-13T10:46:30.110Z,98797.88
2023-03-13T10:49:00.151Z,98802.00
2023-03-13T10:51:35.798Z,98795.50
2023-03-13T10:54:14.923Z,98782.59
2023-03-13T10:56:41.595Z,98791.09
2023-03-13T10:59:44.838Z,98783.47
2023-03-13T11:02:35.582Z,98772.53
2023-03-13T11:05:23.389Z,98773.47
2023-03-13T11:07:51.262Z,98783.31
2023-03-13T11:10:22.242Z,98783.34
2023-03-13T11:12:54.169Z,98785.66
2023-03-13T11:15:32.399Z,98789.97
2023-03-13T11:18:19.244Z,98794.78
2023-03-13T11:20:48.002Z,98793.69
2023-03-13T11:23:39.624Z,98783.84
2023-03-13T11:26:24.961Z,98775.28
2023-03-13T11:28:57.491Z,98767.41
2023-03-13T11:31:27.028Z,98761.91
2023-03-13T11:34:11.853Z,98750.47
2023-03-13T11:36:52.050Z,98750.38
2023-03-13T11:39:48.840Z,98742.31
2023-03-13T11:42:59.660Z,98738.56
2023-03-13T11:45:38.513Z,98728.22
2023-03-13T11:48:33.239Z,98711.34
2023-03-13T11:51:12.897Z,98719.03
2023-03-13T11:53:57.884Z,98697.22
2023-03-13T11:56:38.782Z,98718.69
2023-03-13T11:59:41.482Z,98699.34
2023-03-13T12:02:33.376Z,98705.59
2023-03-13T12:05:04.845Z,98709.03
2023-03-13T12:07:39.765Z,98701.91
2023-03-13T12:10:12.664Z,98700.91
2023-03-13T12:12:47.705Z,98681.66
2023-03-13T12:15:14.514Z,98707.81
2023-03-13T12:17:50.012Z,98713.25
2023-03-13T12:20:29.345Z,98710.56
2023-03-13T12:23:23.966Z,98700.72
2023-03-13T12:26:06.135Z,98695.94
2023-03-13T12:29:12.484Z,98683.53
2023-03-13T12:31:49.048Z,98683.28
2023-03-13T12:34:26.762Z,98689.03
2023-03-13T12:37:02.701Z,98687.88
2023-03-13T12:39:39.913Z,98687.69
2023-03-13T12:42:12.621Z,98690.88
2023-03-13T12:44:40.074Z,98677.44
2023-03-13T12:47:46.418Z,98686.34
2023-03-13T12:50:40.531Z,98678.13
2023-03-13T12:53:32.825Z,98685.47
2023-03-13T12:56:02.118Z,98667.94
2023-03-13T12:58:45.137Z,98672.84
2023-03-13T13:01:35.035Z,98674.41
2023-03-13T13:04:27.111Z,98669.53
2023-03-13T13:07:04.445Z,98660.53
2023-03-13T13:09:36.099Z,98669.84
2023-03-13T13:12:25.286Z,98665.94
2023-03-13T13:14:52.079Z,98666.94
2023-03-13T13:17:57.194Z,98647.94
2023-03-13T13:20:37.804Z,98656.88
2023-03-13T13:23:24.022Z,98643.09
2023-03-13T13:25:51.534Z,98628.31
2023-03-13T13:28:21.958Z,98640.50
2023-03-13T13:30:50.400Z,98636.88
2023-03-13T13:33:20.415Z,98639.25
2023-03-13T13:36:07.795Z,98625.69
2023-03-13T13:38:37.180Z,98634.38
2023-03-13T13:41:09.773Z,98613.28
2023-03-13T13:43:37.704Z,98614.75
2023-03-13T13:46:25.404Z,98604.75
2023-03-13T13:49:07.693Z,98596.63
2023-03-13T13:51:41.928Z,98592.19
2023-03-13T13:54:46.880Z,98607.19
2023-03-13T13:57:21.020Z,98631.94
2023-03-13T13:59:54.615Z,98596.94
2023-03-13T14:02:29.838Z,98596.13
2023-03-13T14:05:08.453Z,98583.31
2023-03-13T14:07:35.117Z,98591.56
2023-03-13T14:10:22.566Z,98588.94
2023-03-13T14:13:00.697Z,98583.31
2023-03-13T14:15:32.362Z,98590.13
2023-03-13T14:18:08.872Z,98568.00
2023-03-13T14:20:54.468Z,98562.66
2023-03-13T14:23:30.550Z,98566.88
2023-03-13T14:25:57.170Z,98552.47
2023-03-13T14:28:28.670Z,98555.59
2023-03-13T14:30:57.236Z,98560.06
2023-03-13T14:33:29.120Z,98556.75
2023-03-13T14:35:57.695Z,98558.25
2023-03-13T14:38:26.623Z,98557.31
2023-03-13T14:40:58.076Z,98544.50
2023-03-13T14:43:35.368Z,98547.31
2023-03-13T14:46:16.325Z,98555.38
2023-03-13T14:48:43.080Z,98549.16
2023-03-13T14:51:29.939Z,98543.16
2023-03-13T14:54:02.310Z,98535.16
2023-03-13T14:56:33.746Z,98530.28
2023-03-13T14:59:17.990Z,98523.69
2023-03-13T15:01:46.289Z,98513.38
2023-03-13T15:04:13.025Z,98537.41
2023-03-13T15:06:39.773Z,98511.84
2023-03-13T15:09:25.317Z,98534.56
2023-03-13T15:11:58.727Z,98513.91
2023-03-13T15:14:35.030Z,98509.69
2023-03-13T15:17:04.225Z,98504.00
2023-03-13T15:19:32.317Z,98518.19
2023-03-13T15:21:59.042Z,98491.16
2023-03-13T15:24:25.746Z,98491.69
2023-03-13T15:26:52.466Z,98500.31
2023-03-13T15:29:20.204Z,98489.75
2023-03-13T15:31:47.140Z,98465.91
2023-03-13T15:34:14.904Z,98477.53
2023-03-13T15:36:42.562Z,98490.66
2023-03-13T15:39:16.717Z,98483.94
2023-03-13T15:41:43.394Z,98480.84
2023-03-13T15:44:10.059Z,98472.63
2023-03-13T15:46:36.992Z,98480.38
2023-03-13T15:49:04.139Z,98478.16
2023-03-13T15:51:30.864Z,98473.25
2023-03-13T15:53:57.558Z,98463.56
2023-03-13T15:56:24.334Z,98463.69
2023-03-13T15:58:51.653Z,98445.88
2023-03-13T16:01:19.234Z,98447.50
2023-03-13T16:03:45.930Z,98459.56
2023-03-13T16:06:18.979Z,98453.63
2023-03-13T16:08:46.125Z,98454.47
2023-03-13T16:11:15.163Z,98435.81
2023-03-13T16:13:42.289Z,98441.72
2023-03-13T16:16:21.814Z,98444.88
2023-03-13T16:18:50.298Z,98442.75
2023-03-13T16:21:20.102Z,98432.50
2023-03-13T16:23:47.193Z,98442.25
2023-03-13T16:26:19.391Z,98424.59
2023-03-13T16:28:47.573Z,98440.06
2023-03-13T16:31:33.351Z,98421.16
2023-03-13T16:34:00.861Z,98413.03
2023-03-13T16:36:31.161Z,98425.69
2023-03-13T16:38:59.900Z,98424.72
2023-03-13T16:41:27.837Z,98419.66
2023-03-13T16:43:55.394Z,98423.66
2023-03-13T16:46:30.235Z,98425.34
2023-03-13T16:48:58.483Z,98432.09
2023-03-13T16:51:26.929Z,98426.66
2023-03-13T16:53:55.395Z,98435.84
2023-03-13T16:56:30.538Z,98439.91
2023-03-13T16:58:57.629Z,98431.78
2023-03-13T17:01:29.039Z,98429.94
2023-03-13T17:03:57.513Z,98429.44
2023-03-13T17:06:31.924Z,98419.84
2023-03-13T17:08:59.092Z,98410.78
2023-03-13T17:11:25.776Z,98418.91
2023-03-13T17:13:53.220Z,98412.69
2023-03-13T17:16:23.684Z,98426.72
2023-03-13T17:18:53.096Z,98424.75
2023-03-13T17:21:25.407Z,98422.06
2023-03-13T17:23:53.425Z,98425.69
2023-03-13T17:26:29.875Z,98426.66
2023-03-13T17:28:57.779Z,98420.34
2023-03-13T17:31:26.736Z,98414.13
2023-03-13T17:33:53.464Z,98415.97
2023-03-13T17:36:21.816Z,98429.66
2023-03-13T17:38:50.929Z,98424.53
2023-03-13T17:41:20.554Z,98435.13
2023-03-13T17:43:47.678Z,98429.44
2023-03-13T17:46:20.456Z,98425.06
2023-03-13T17:48:50.293Z,98435.28
2023-03-13T17:51:18.751Z,98430.69
2023-03-13T17:53:45.518Z,98433.66
2023-03-13T17:56:22.800Z,98443.88
2023-03-13T17:58:51.405Z,98439.09
2023-03-13T18:01:21.137Z,98442.41
2023-03-13T18:03:49.276Z,98441.44
2023-03-13T18:06:20.328Z,98442.53
2023-03-13T18:08:48.593Z,98428.50
2023-03-13T18:11:17.200Z,98435.13
2023-03-13T18:13:45.448Z,98438.88
2023-03-13T18:16:18.431Z,98440.19
2023-03-13T18:18:45.210Z,98442.03
2023-03-13T18:21:11.908Z,98433.88
2023-03-13T18:23:38.612Z,98436.28
2023-03-13T18:26:23.685Z,98444.34
2023-03-13T18:28:51.111Z,98439.38
2023-03-13T18:31:18.263Z,98443.53
2023-03-13T18:33:45.952Z,98449.25
2023-03-13T18:36:17.181Z,98444.00
2023-03-13T18:38:45.074Z,98446.16
2023-03-13T18:41:12.039Z,98458.53
2023-03-13T18:43:38.995Z,98445.06
2023-03-13T18:46:06.264Z,98458.31
2023-03-13T18:48:32.942Z,98462.50
2023-03-13T18:50:59.631Z,98462.38
2023-03-13T18:53:27.167Z,98467.38
2023-03-13T18:55:54.013Z,98465.06
2023-03-13T18:58:20.717Z,98459.34
2023-03-13T19:00:47.502Z,98470.38
2023-03-13T19:03:14.287Z,98473.22
2023-03-13T19:05:40.966Z,98485.41
2023-03-13T19:08:10.390Z,98481.13
2023-03-13T19:10:38.578Z,98482.25
2023-03-13T19:13:05.279Z,98493.63
2023-03-13T19:15:32.270Z,98494.19
2023-03-13T19:18:02.603Z,98497.34
2023-03-13T19:20:30.012Z,98498.78
2023-03-13T19:23:00.428Z,98501.06
2023-03-13T19:25:27.260Z,98507.97
2023-03-13T19:27:53.959Z,98509.03
2023-03-13T19:30:25.677Z,98497.94
2023-03-13T19:32:52.701Z,98499.28
2023-03-13T19:35:21.725Z,98494.63
2023-03-13T19:37:48.695Z,98493.63
2023-03-13T19:40:25.578Z,98487.50
2023-03-13T19:42:52.203Z,98490.00
2023-03-13T19:45:20.462Z,98504.66
2023-03-13T19:47:47.475Z,98495.41
2023-03-13T19:50:22.943Z,98493.56
2023-03-13T19:52:49.708Z,98500.13
2023-03-13T19:55:17.509Z,98503.03
2023-03-13T19:57:44.389Z,98502.16
2023-03-13T20:00:22.203Z,98508.91
2023-03-13T20:02:49.794Z,98503.09
2023-03-13T20:05:16.944Z,98500.88
2023-03-13T20:07:43.691Z,98506.75
2023-03-13T20:10:10.970Z,98496.66
2023-03-13T20:12:37.638Z,98501.00
2023-03-13T20:15:04.998Z,98491.94
2023-03-13T20:17:31.593Z,98476.31
2023-03-13T20:19:58.255Z,98461.75
2023-03-13T20:22:24.899Z,98468.75
2023-03-13T20:24:53.513Z,98462.75
2023-03-13T20:27:20.160Z,98453.28
2023-03-13T20:29:46.810Z,98456.59
2023-03-13T20:32:13.587Z,98472.50
2023-03-13T20:34:40.264Z,98476.22
2023-03-13T20:37:06.903Z,98474.03
2023-03-13T20:39:35.508Z,98461.09
2023-03-13T20:42:03.250Z,98463.38
2023-03-13T20:44:30.165Z,98457.28
2023-03-13T20:46:56.874Z,98463.03
2023-03-13T20:49:23.572Z,98475.69
2023-03-13T20:51:50.237Z,98468.78
2023-03-13T20:54:16.963Z,98463.34
2023-03-13T20:56:43.819Z,98455.47
2023-03-13T20:59:10.468Z,98452.91
2023-03-13T21:01:37.131Z,98444.03
2023-03-13T21:04:04.219Z,98448.72
2023-03-13T21:06:30.899Z,98446.28
2023-03-13T21:08:57.606Z,98449.19
2023-03-13T21:11:24.304Z,98452.91
2023-03-13T21:13:51.449Z,98446.09
2023-03-13T21:16:19.942Z,98445.03
2023-03-13T21:18:47.515Z,98432.38
2023-03-13T21:21:17.441Z,98433.22
2023-03-13T21:23:45.033Z,98435.72
2023-03-13T21:26:12.080Z,98447.47
2023-03-13T21:28:39.807Z,98449.16
2023-03-13T21:31:14.943Z,98458.47
2023-03-13T21:33:43.048Z,98452.25
2023-03-13T21:36:11.224Z,98462.88
2023-03-13T21:38:38.535Z,98451.81
2023-03-13T21:41:10.182Z,98457.66
2023-03-13T21:43:37.534Z,98460.28
2023-03-13T21:46:04.496Z,98468.25
2023-03-13T21:48:31.183Z,98473.75
2023-03-13T21:50:57.824Z,98475.31
2023-03-13T21:53:24.496Z,98487.47
2023-03-13T21:55:51.844Z,98485.63
2023-03-13T21:58:18.678Z,98488.13
2023-03-13T22:00:45.686Z,98482.47
2023-03-13T22:03:12.529Z,98483.19
2023-03-13T22:05:43.694Z,98484.16
2023-03-13T22:08:10.872Z,98481.53
2023-03-13T22:10:38.061Z,98482.38
2023-03-13T22:13:05.965Z,98477.41
2023-03-13T22:15:32.599Z,98468.59
2023-03-13T22:17:59.296Z,98464.31
2023-03-13T22:20:25.999Z,98464.28
2023-03-13T22:22:52.622Z,98465.22
2023-03-13T22:25:19.278Z,98460.53
2023-03-13T22:27:46.004Z,98453.78
2023-03-13T22:30:13.154Z,98450.84
2023-03-13T22:32:39.828Z,98447.94
2023-03-13T22:35:07.223Z,98440.81
2023-03-13T22:37:34.027Z,98452.53
2023-03-13T22:40:00.749Z,98451.16
2023-03-13T22:42:27.828Z,98442.56
2023-03-13T22:44:55.744Z,98446.91
2023-03-13T22:47:24.637Z,98439.56
2023-03-13T22:49:52.507Z,98437.56
2023-03-13T22:52:20.021Z,98441.16
2023-03-13T22:54:46.624Z,98444.47
2023-03-13T22:57:13.432Z,98440.94
2023-03-13T22:59:40.241Z,98435.72
2023-03-13T23:02:06.926Z,98426.28
2023-03-13T23:04:33.604Z,98417.41
2023-03-13T23:07:00.301Z,98406.31
2023-03-13T23:09:26.972Z,98403.19
2023-03-13T23:11:53.643Z,98404.63
2023-03-13T23:14:20.296Z,98407.13
2023-03-13T23:16:47.123Z,98404.06
2023-03-13T23:19:13.759Z,98398.31
2023-03-13T23:21:40.426Z,98400.78
2023-03-13T23:24:07.473Z,98395.59
2023-03-13T23:26:34.159Z,98385.44
2023-03-13T23:29:00.821Z,98385.22
2023-03-13T23:31:27.484Z,98388.06
2023-03-13T23:33:54.125Z,98388.00
2023-03-13T23:36:21.007Z,98387.34
2023-03-13T23:38:52.538Z,98391.31
2023-03-13T23:41:20.370Z,98390.06
2023-03-13T23:43:47.367Z,98396.44
2023-03-13T23:46:19.074Z,98400.25
2023-03-13T23:48:45.723Z,98398.97
2023-03-13T23:51:12.488Z,98389.38
2023-03-13T23:53:41.555Z,98393.88
2023-03-13T23:56:09.022Z,98380.94
2023-03-13T23:58:35.858Z,98387.03
